Time;durP1;ratioP1;P1;durP2;ratioP2;P2;SDS_P1;SDS_P2;PMS_P1;PMS_P2;Temp;Humidity;BMP_temperature;BMP_pressure;BME280_temperature;BME280_humidity;BME280_pressure;Samples;Min_cycle;Max_cycle;Signal;HPM_P1;HPM_P2
2023/10/16 00:01:10;;;;;;;6.88;2.70;;;8.80;94.10;;;;;;5099711;28;20413;-82
2023/10/16 00:03:43;;;;;;;4.25;2.53;;;8.70;94.20;;;;;;5115762;28;20061;-83
2023/10/16 00:06:12;;;;;;;3.63;2.40;;;8.70;94.20;;;;;;5099401;28;20058;-83
2023/10/16 00:08:48;;;;;;;3.40;2.45;;;8.70;94.50;;;;;;5082209;28;20027;-81
2023/10/16 00:11:24;;;;;;;5.10;2.53;;;8.70;94.30;;;;;;5100325;28;20023;-82
2023/10/16 00:13:52;;;;;;;5.97;2.63;;;8.70;94.30;;;;;;5099131;28;20076;-81
2023/10/16 00:16:23;;;;;;;5.35;2.50;;;8.70;94.30;;;;;;5134389;27;20027;-81
2023/10/16 00:18:53;;;;;;;4.65;2.42;;;8.70;94.30;;;;;;5099418;28;20019;-81
2023/10/16 00:21:19;;;;;;;5.20;2.70;;;8.70;94.30;;;;;;5115865;27;20028;-81
2023/10/16 00:23:46;;;;;;;7.07;2.75;;;8.80;94.30;;;;;;5101599;27;20389;-81
2023/10/16 00:26:16;;;;;;;5.30;2.83;;;8.80;94.40;;;;;;5102600;27;20035;-81
2023/10/16 00:28:45;;;;;;;4.82;2.47;;;8.90;94.30;;;;;;5119308;27;20027;-81
2023/10/16 00:31:20;;;;;;;4.35;2.63;;;8.90;94.20;;;;;;5103069;27;20031;-81
2023/10/16 00:33:48;;;;;;;4.85;2.63;;;8.90;94.10;;;;;;5119219;27;20026;-81
2023/10/16 00:36:14;;;;;;;5.82;2.75;;;8.80;94.00;;;;;;5102198;27;20122;-81
2023/10/16 00:38:41;;;;;;;3.78;2.38;;;8.80;94.00;;;;;;5085320;27;20046;-81
2023/10/16 00:41:15;;;;;;;3.95;2.40;;;8.80;94.00;;;;;;5102525;27;20038;-81
2023/10/16 00:43:45;;;;;;;3.85;2.45;;;8.70;93.80;;;;;;5103170;27;20117;-81
2023/10/16 00:46:18;;;;;;;5.53;2.75;;;8.60;93.70;;;;;;5119916;27;20084;-81
2023/10/16 00:48:44;;;;;;;5.70;2.25;;;8.60;93.90;;;;;;5118723;27;20030;-81
2023/10/16 00:51:13;;;;;;;4.85;1.98;;;8.50;93.90;;;;;;5101870;27;20043;-81
2023/10/16 00:53:40;;;;;;;4.43;2.40;;;8.50;94.00;;;;;;5085657;27;20020;-81
2023/10/16 00:56:12;;;;;;;5.75;2.70;;;8.50;94.20;;;;;;5101998;27;20034;-81
2023/10/16 00:58:38;;;;;;;4.55;2.72;;;8.50;94.30;;;;;;5101982;27;20027;-82
2023/10/16 01:01:09;;;;;;;4.30;2.45;;;8.50;94.50;;;;;;5084706;27;20426;-82
2023/10/16 01:03:37;;;;;;;5.03;2.75;;;8.60;94.50;;;;;;5102257;27;20031;-82
2023/10/16 01:06:14;;;;;;;4.68;2.80;;;8.70;94.50;;;;;;5101694;27;20031;-81
2023/10/16 01:08:47;;;;;;;4.70;2.78;;;8.70;94.90;;;;;;5104315;27;20031;-82
2023/10/16 01:11:18;;;;;;;5.68;3.13;;;8.80;94.40;;;;;;5118578;27;20366;-81
2023/10/16 01:13:47;;;;;;;5.10;2.50;;;8.80;94.30;;;;;;5102177;27;20035;-82
2023/10/16 01:16:16;;;;;;;5.97;3.03;;;8.80;94.20;;;;;;5102269;27;20034;-82
2023/10/16 01:18:43;;;;;;;7.53;3.22;;;8.70;94.20;;;;;;5118475;27;20070;-82
2023/10/16 01:21:09;;;;;;;5.00;2.83;;;8.80;94.30;;;;;;5101282;27;20031;-81
2023/10/16 01:23:34;;;;;;;5.97;2.90;;;8.80;94.30;;;;;;5101684;27;20037;-82
2023/10/16 01:26:01;;;;;;;7.15;3.13;;;8.80;94.30;;;;;;5084270;27;20511;-81
2023/10/16 01:28:27;;;;;;;5.28;2.72;;;8.80;94.10;;;;;;5136968;27;20027;-81
2023/10/16 01:30:54;;;;;;;8.45;2.63;;;8.70;93.90;;;;;;5118424;27;20011;-82
2023/10/16 01:33:20;;;;;;;5.68;2.70;;;8.60;93.70;;;;;;5100655;27;20106;-82
2023/10/16 01:35:46;;;;;;;4.43;2.63;;;8.50;93.90;;;;;;5101612;27;20024;-81
2023/10/16 01:38:15;;;;;;;4.45;2.40;;;8.40;94.00;;;;;;5100722;27;20039;-82
2023/10/16 01:41:09;;;;;;;7.22;2.80;;;8.40;94.00;;;;;;5137089;27;20028;-81
2023/10/16 01:43:39;;;;;;;4.38;2.75;;;8.40;94.00;;;;;;5118060;27;20053;-82
2023/10/16 01:46:08;;;;;;;4.18;2.65;;;8.40;94.20;;;;;;5101767;27;20123;-81
2023/10/16 01:48:44;;;;;;;5.90;2.90;;;8.40;94.30;;;;;;5136113;27;20092;-82
2023/10/16 01:51:20;;;;;;;4.63;3.08;;;8.50;94.40;;;;;;5101334;27;20051;-81
2023/10/16 01:53:47;;;;;;;7.63;3.13;;;8.40;94.20;;;;;;5118093;27;20025;-82
2023/10/16 01:56:14;;;;;;;5.47;2.88;;;8.40;94.30;;;;;;5117162;27;20397;-82
2023/10/16 01:58:47;;;;;;;5.22;2.95;;;8.40;94.40;;;;;;5117616;27;20034;-82
2023/10/16 02:01:16;;;;;;;4.90;3.28;;;8.50;94.50;;;;;;5118947;27;20027;-81
2023/10/16 02:03:44;;;;;;;4.90;2.80;;;8.50;94.40;;;;;;5136064;27;20088;-82
2023/10/16 02:06:13;;;;;;;5.95;2.97;;;8.40;94.50;;;;;;5136596;27;20481;-81
2023/10/16 02:08:40;;;;;;;5.07;3.25;;;8.40;94.50;;;;;;5117534;27;20087;-81
2023/10/16 02:11:07;;;;;;;5.70;3.03;;;8.30;94.50;;;;;;5084327;27;20031;-83
2023/10/16 02:13:37;;;;;;;6.45;3.55;;;8.40;94.60;;;;;;5084131;27;20019;-82
2023/10/16 02:16:06;;;;;;;6.53;3.20;;;8.30;94.60;;;;;;5084523;27;20023;-82
2023/10/16 02:18:37;;;;;;;6.57;3.05;;;8.40;95.10;;;;;;5084672;27;20031;-82
2023/10/16 02:21:04;;;;;;;5.72;2.97;;;8.40;94.70;;;;;;5101454;27;20023;-82
2023/10/16 02:23:31;;;;;;;5.97;3.50;;;8.40;94.70;;;;;;5101131;27;20393;-82
2023/10/16 02:25:59;;;;;;;4.32;3.05;;;8.40;94.60;;;;;;5117562;27;20477;-82
2023/10/16 02:28:26;;;;;;;6.68;3.60;;;8.40;94.60;;;;;;5100766;27;20023;-82
2023/10/16 02:30:52;;;;;;;8.45;3.00;;;8.40;94.60;;;;;;5083792;27;20027;-82
2023/10/16 02:35:48;;;;;;;5.90;3.10;;;8.20;94.20;;;;;;5135589;27;20027;-81
2023/10/16 02:38:27;;;;;;;6.28;2.88;;;8.20;94.30;;;;;;5100967;27;20549;-81
2023/10/16 02:40:54;;;;;;;6.15;2.90;;;8.20;94.40;;;;;;5086597;27;20023;-81
2023/10/16 02:43:23;;;;;;;5.15;3.33;;;8.20;94.50;;;;;;5135447;27;20019;-81
2023/10/16 02:45:52;;;;;;;5.65;3.00;;;8.20;94.60;;;;;;5099344;27;20058;-82
2023/10/16 02:48:23;;;;;;;7.13;2.95;;;8.20;94.70;;;;;;5083529;27;20023;-81
2023/10/16 02:50:56;;;;;;;4.95;2.95;;;8.20;94.70;;;;;;5116643;27;20085;-83
2023/10/16 02:53:25;;;;;;;7.47;3.60;;;8.30;94.80;;;;;;5084258;27;20023;-81
2023/10/16 02:55:58;;;;;;;8.38;3.00;;;8.30;94.80;;;;;;5116367;28;20015;-81
2023/10/16 02:58:26;;;;;;;5.85;3.47;;;8.30;94.80;;;;;;5117339;27;20114;-81
2023/10/16 03:01:06;;;;;;;5.70;2.70;;;8.40;94.80;;;;;;5099846;27;20023;-82
2023/10/16 03:03:32;;;;;;;7.45;3.10;;;8.40;94.80;;;;;;5101062;27;20032;-82
2023/10/16 03:05:59;;;;;;;6.20;3.10;;;8.50;94.80;;;;;;5116975;28;20034;-82
2023/10/16 03:08:32;;;;;;;6.18;2.92;;;8.50;94.80;;;;;;5116854;28;20122;-82
2023/10/16 03:10:59;;;;;;;7.20;3.47;;;8.50;94.80;;;;;;5116967;28;20023;-82
2023/10/16 03:13:25;;;;;;;6.70;3.30;;;8.50;94.80;;;;;;5099975;27;20026;-81
2023/10/16 03:15:59;;;;;;;9.27;3.17;;;8.40;94.80;;;;;;5099687;28;20076;-81
2023/10/16 03:18:25;;;;;;;6.38;3.40;;;8.30;95.10;;;;;;5100581;28;20485;-81
2023/10/16 03:23:46;;;;;;;6.95;3.30;;;8.30;95.40;;;;;;5135392;28;20122;-81
2023/10/16 03:26:28;;;;;;;6.32;3.17;;;8.20;95.40;;;;;;5100642;28;20080;-82
2023/10/16 03:28:59;;;;;;;7.72;3.03;;;8.30;95.40;;;;;;5101133;28;20507;-81
2023/10/16 03:31:28;;;;;;;8.93;3.30;;;8.30;95.30;;;;;;5116833;28;20016;-82
2023/10/16 03:33:54;;;;;;;6.57;3.33;;;8.30;95.40;;;;;;5116293;28;20264;-81
2023/10/16 03:36:21;;;;;;;6.10;3.15;;;8.30;95.40;;;;;;5099540;27;20027;-81
2023/10/16 03:38:49;;;;;;;7.22;3.70;;;8.30;95.30;;;;;;5083168;28;20558;-82
2023/10/16 03:43:47;;;;;;;7.78;3.65;;;8.40;95.50;;;;;;5100899;27;20051;-82
2023/10/16 03:46:13;;;;;;;4.93;3.25;;;8.40;95.50;;;;;;5116527;28;20039;-83
2023/10/16 03:48:40;;;;;;;11.07;3.72;;;8.50;95.40;;;;;;5082514;28;20507;-83
2023/10/16 03:51:11;;;;;;;6.38;3.42;;;8.50;95.40;;;;;;5116736;28;20126;-83
2023/10/16 03:53:37;;;;;;;6.13;3.60;;;8.50;95.20;;;;;;5116915;28;20023;-83
2023/10/16 03:56:07;;;;;;;5.50;3.60;;;8.50;95.10;;;;;;5116294;27;20019;-83
2023/10/16 03:58:41;;;;;;;7.43;3.90;;;8.50;95.10;;;;;;5103326;27;20401;-83
2023/10/16 04:01:10;;;;;;;6.35;3.45;;;8.50;95.10;;;;;;5088583;27;20109;-83
2023/10/16 04:03:50;;;;;;;6.00;3.50;;;8.60;95.20;;;;;;5087203;27;20027;-83
2023/10/16 04:06:21;;;;;;;8.20;3.90;;;8.60;95.30;;;;;;5119962;27;20079;-83
2023/10/16 04:08:50;;;;;;;5.72;3.25;;;8.60;95.30;;;;;;5120005;27;20080;-82
2023/10/16 04:11:18;;;;;;;5.50;3.10;;;8.60;95.20;;;;;;5103103;27;20023;-83
2023/10/16 04:13:50;;;;;;;7.22;3.80;;;8.60;95.10;;;;;;5138495;27;20030;-83
2023/10/16 04:16:30;;;;;;;6.55;3.70;;;8.60;95.10;;;;;;5119606;27;20020;-82
2023/10/16 04:19:34;;;;;;;6.05;3.40;;;8.50;95.20;;;;;;5104776;27;20037;-83
2023/10/16 04:26:57;;;;;;;5.90;3.80;;;8.60;95.50;;;;;;5121198;27;20468;-82
2023/10/16 04:29:34;;;;;;;6.07;3.50;;;8.60;95.50;;;;;;5103985;27;20023;-83
2023/10/16 04:34:34;;;;;;;8.35;3.63;;;8.60;95.40;;;;;;5105158;27;20034;-83
2023/10/16 04:47:47;;;;;;;6.70;3.65;;;8.60;95.40;;;;;;5120662;27;20405;-83
2023/10/16 04:50:14;;;;;;;6.32;4.53;;;8.60;95.40;;;;;;5119065;27;20047;-82
2023/10/16 05:03:27;;;;;;;7.15;4.15;;;8.50;95.40;;;;;;5140081;27;20083;-81
2023/10/16 05:17:06;;;;;;;7.88;4.57;;;8.40;95.90;;;;;;5148477;27;20049;-84
2023/10/16 06:14:16;;;;;;;9.02;5.60;;;8.60;96.60;;;;;;5121385;27;20037;-83
2023/10/16 06:16:53;;;;;;;8.95;5.28;;;8.70;96.70;;;;;;5085101;27;20076;-82
2023/10/16 06:19:19;;;;;;;8.23;5.20;;;8.70;96.60;;;;;;5085445;27;20027;-82
2023/10/16 06:22:06;;;;;;;10.43;5.60;;;8.70;96.70;;;;;;5119989;27;20541;-82
2023/10/16 06:24:44;;;;;;;9.88;5.65;;;8.70;96.60;;;;;;5117290;27;20026;-82
2023/10/16 06:27:11;;;;;;;9.20;5.40;;;8.70;96.60;;;;;;5116915;27;20034;-82
2023/10/16 06:29:49;;;;;;;9.10;5.95;;;8.80;96.60;;;;;;5100269;27;20380;-82
2023/10/16 06:32:19;;;;;;;8.50;5.43;;;8.80;96.60;;;;;;5117507;27;20023;-82
2023/10/16 06:34:45;;;;;;;10.85;5.60;;;8.90;96.60;;;;;;5117658;27;20020;-82
2023/10/16 06:37:16;;;;;;;10.38;5.78;;;8.90;96.50;;;;;;5137095;27;20015;-83
2023/10/16 06:39:44;;;;;;;9.25;5.30;;;8.90;96.40;;;;;;5119086;27;20087;-82
2023/10/16 06:42:17;;;;;;;8.75;5.63;;;8.90;96.30;;;;;;5083679;27;20098;-82
2023/10/16 06:44:50;;;;;;;12.38;6.22;;;8.90;96.30;;;;;;5102570;27;20080;-84
2023/10/16 06:47:18;;;;;;;10.85;5.88;;;8.90;96.30;;;;;;5104543;27;20028;-82
2023/10/16 06:49:46;;;;;;;10.15;5.80;;;8.90;96.30;;;;;;5098074;28;20051;-84
2023/10/16 06:52:17;;;;;;;10.75;6.43;;;8.90;96.40;;;;;;5081126;28;20477;-84
2023/10/16 06:54:44;;;;;;;8.43;5.13;;;9.00;96.50;;;;;;5114458;28;20034;-84
2023/10/16 06:57:13;;;;;;;11.32;6.00;;;9.00;96.50;;;;;;5097618;28;20050;-84
2023/10/16 06:59:40;;;;;;;12.68;6.90;;;9.00;96.40;;;;;;5115504;28;20476;-84
2023/10/16 07:02:13;;;;;;;10.32;6.55;;;9.00;96.40;;;;;;5114171;28;20453;-84
2023/10/16 07:04:47;;;;;;;9.65;6.00;;;9.00;96.40;;;;;;5083225;28;20020;-83
2023/10/16 07:07:15;;;;;;;9.88;5.93;;;9.00;96.50;;;;;;5085696;28;20031;-83
2023/10/16 07:09:47;;;;;;;7.50;5.43;;;9.00;96.50;;;;;;5114868;28;20094;-83
2023/10/16 07:12:17;;;;;;;9.80;5.72;;;9.00;96.60;;;;;;5113642;28;20077;-83
2023/10/16 07:14:57;;;;;;;9.90;6.10;;;9.10;96.70;;;;;;5114056;28;20012;-83
2023/10/16 07:17:27;;;;;;;11.68;5.97;;;9.10;96.60;;;;;;5098415;28;20031;-83
2023/10/16 07:20:00;;;;;;;11.43;6.25;;;9.10;96.60;;;;;;5107152;28;20028;-83
2023/10/16 07:22:32;;;;;;;9.43;6.43;;;9.10;96.70;;;;;;5060117;28;20073;-83
2023/10/16 07:25:47;;;;;;;15.10;6.57;;;9.10;96.70;;;;;;5092747;28;20031;-84
2023/10/16 07:27:58;;;;;;;11.02;6.68;;;9.10;96.60;;;;;;5089254;28;20032;-84
2023/10/16 07:30:25;;;;;;;16.13;7.05;;;9.20;96.70;;;;;;5061113;28;20397;-84
2023/10/16 07:32:51;;;;;;;11.52;6.93;;;9.20;96.70;;;;;;5097156;28;20016;-83
2023/10/16 07:35:18;;;;;;;10.73;6.90;;;9.30;96.80;;;;;;5083604;28;20031;-84
2023/10/16 07:37:49;;;;;;;11.90;6.78;;;9.30;96.70;;;;;;5100340;28;20481;-83
2023/10/16 07:40:21;;;;;;;11.55;6.20;;;9.40;96.70;;;;;;5117339;28;20510;-82
2023/10/16 07:42:47;;;;;;;10.48;6.18;;;9.40;96.60;;;;;;5117488;28;20035;-82
2023/10/16 07:45:13;;;;;;;13.80;6.47;;;9.50;96.60;;;;;;5119107;28;20497;-82
2023/10/16 07:47:39;;;;;;;13.90;6.40;;;9.50;96.60;;;;;;5117935;28;20392;-82
2023/10/16 07:50:07;;;;;;;11.57;6.88;;;9.50;96.60;;;;;;5083892;28;20047;-81
2023/10/16 07:52:34;;;;;;;13.85;7.22;;;9.50;96.70;;;;;;5117949;28;20125;-82
2023/10/16 07:55:05;;;;;;;10.00;6.57;;;9.60;96.80;;;;;;5119064;28;20011;-82
2023/10/16 07:57:32;;;;;;;12.48;7.22;;;9.60;96.70;;;;;;5117836;28;20118;-82
2023/10/16 08:00:07;;;;;;;14.25;8.02;;;9.70;96.70;;;;;;5083896;28;20385;-82
2023/10/16 08:02:33;;;;;;;12.38;6.65;;;9.70;96.70;;;;;;5086118;28;20485;-81
2023/10/16 08:05:03;;;;;;;11.38;6.93;;;9.80;96.60;;;;;;5104156;28;20031;-81
2023/10/16 08:07:48;;;;;;;17.35;7.28;;;9.80;96.60;;;;;;5087359;28;20378;-81
2023/10/16 08:13:11;;;;;;;13.32;7.13;;;10.00;96.60;;;;;;5080539;28;20021;-83
2023/10/16 08:15:48;;;;;;;10.43;6.72;;;10.00;96.60;;;;;;5064782;28;20036;-81
2023/10/16 08:18:13;;;;;;;10.85;6.53;;;10.10;96.60;;;;;;5080501;28;20028;-83
2023/10/16 08:23:24;;;;;;;9.82;5.65;;;10.30;96.50;;;;;;5080242;28;20044;-81
2023/10/16 08:25:49;;;;;;;10.43;6.60;;;10.40;96.50;;;;;;5064348;28;20029;-83
2023/10/16 08:28:23;;;;;;;9.25;5.68;;;10.50;96.50;;;;;;5063134;28;20110;-83
2023/10/16 08:30:50;;;;;;;11.52;5.97;;;10.60;96.40;;;;;;5065211;28;20028;-81
2023/10/16 08:33:16;;;;;;;11.10;5.80;;;10.70;96.40;;;;;;5063415;28;20021;-81
2023/10/16 08:35:43;;;;;;;9.38;5.35;;;10.80;96.30;;;;;;5081062;28;20051;-81
2023/10/16 08:38:25;;;;;;;9.00;5.82;;;10.90;96.30;;;;;;5078350;28;20036;-83
2023/10/16 08:40:58;;;;;;;10.15;5.93;;;11.00;96.20;;;;;;5064880;28;20032;-83
2023/10/16 08:46:18;;;;;;;11.00;5.25;;;11.10;96.20;;;;;;5079682;28;20088;-82
2023/10/16 08:48:52;;;;;;;7.72;5.00;;;11.20;96.10;;;;;;5075533;28;20122;-82
2023/10/16 08:51:36;;;;;;;9.05;5.18;;;11.30;96.10;;;;;;5100626;28;20048;-82
2023/10/16 08:54:35;;;;;;;7.25;4.88;;;11.40;96.10;;;;;;5087292;28;20028;-82
2023/10/16 08:56:54;;;;;;;6.70;4.40;;;11.60;96.00;;;;;;5119510;28;20024;-82
2023/10/16 08:59:24;;;;;;;11.20;5.13;;;11.70;95.90;;;;;;5117235;28;20035;-82
2023/10/16 09:01:54;;;;;;;;;;;11.90;95.80;;;;;;5097209;28;20032;-82
2023/10/16 09:04:23;;;;;;;7.82;4.70;;;11.90;94.90;;;;;;5064742;28;19908;-83
2023/10/16 09:06:50;;;;;;;6.68;4.47;;;11.90;95.10;;;;;;5081121;28;20074;-83
2023/10/16 09:09:25;;;;;;;7.55;4.57;;;12.00;95.20;;;;;;5064490;28;20036;-82
2023/10/16 09:12:01;;;;;;;6.25;4.13;;;12.10;95.20;;;;;;5064912;28;20033;-82
2023/10/16 09:14:27;;;;;;;6.90;3.92;;;12.30;95.20;;;;;;5081883;28;20028;-84
2023/10/16 09:16:55;;;;;;;6.60;3.90;;;12.40;95.00;;;;;;5042118;28;20028;-82
2023/10/16 09:19:46;;;;;;;5.28;3.50;;;12.50;94.70;;;;;;5071389;28;20093;-84
2023/10/16 09:22:15;;;;;;;8.60;4.00;;;12.60;94.20;;;;;;5080718;28;20028;-83
2023/10/16 09:24:51;;;;;;;7.00;3.97;;;12.70;93.90;;;;;;5079911;28;20039;-83
2023/10/16 09:27:41;;;;;;;6.15;3.70;;;12.80;94.00;;;;;;5080869;28;20494;-82
2023/10/16 09:30:14;;;;;;;4.65;3.20;;;12.90;94.10;;;;;;5066455;28;20043;-84
2023/10/16 09:32:41;;;;;;;6.10;3.20;;;13.00;93.90;;;;;;5080165;28;20047;-82
2023/10/16 09:35:11;;;;;;;4.80;3.58;;;13.10;93.60;;;;;;5119614;28;20023;-82
2023/10/16 09:37:40;;;;;;;4.85;3.50;;;13.20;93.60;;;;;;5119566;28;20023;-83
2023/10/16 09:40:19;;;;;;;6.28;3.00;;;13.30;93.30;;;;;;5118334;28;20081;-84
2023/10/16 09:43:05;;;;;;;5.68;2.92;;;13.40;93.30;;;;;;5102464;28;20035;-83
2023/10/16 09:45:35;;;;;;;6.63;3.40;;;13.40;93.10;;;;;;5087197;28;20084;-83
2023/10/16 09:48:09;;;;;;;5.93;3.53;;;13.50;93.20;;;;;;5098872;28;20044;-82
2023/10/16 09:50:38;;;;;;;6.90;3.17;;;13.60;92.90;;;;;;5115630;28;20051;-82
2023/10/16 09:53:18;;;;;;;3.97;2.50;;;13.70;92.80;;;;;;5116140;28;20028;-82
2023/10/16 09:55:48;;;;;;;3.42;2.20;;;13.80;92.70;;;;;;5115239;28;20020;-81
2023/10/16 09:58:16;;;;;;;5.80;2.00;;;13.90;92.30;;;;;;5116585;28;20470;-82
2023/10/16 10:00:46;;;;;;;3.00;1.95;;;14.00;92.50;;;;;;5094703;28;20055;-82
2023/10/16 10:03:17;;;;;;;2.13;1.75;;;14.00;92.00;;;;;;5098881;28;20388;-82
2023/10/16 10:06:08;;;;;;;5.82;2.10;;;14.10;91.60;;;;;;5116931;28;20381;-82
2023/10/16 10:08:53;;;;;;;4.47;1.90;;;14.20;91.10;;;;;;5101920;28;20073;-82
2023/10/16 10:11:44;;;;;;;4.50;2.13;;;14.20;91.10;;;;;;5115713;28;20051;-81
2023/10/16 10:16:58;;;;;;;4.45;1.90;;;14.30;90.70;;;;;;5116700;28;20373;-82
2023/10/16 10:19:31;;;;;;;6.90;2.40;;;14.30;90.60;;;;;;5114593;28;20488;-82
2023/10/16 10:22:11;;;;;;;5.97;2.85;;;14.40;90.50;;;;;;5115247;28;20054;-82
2023/10/16 10:24:45;;;;;;;4.85;2.70;;;14.40;90.70;;;;;;5097345;28;20024;-82
2023/10/16 10:27:11;;;;;;;5.88;2.50;;;14.40;90.80;;;;;;5115775;28;20019;-81
2023/10/16 10:29:49;;;;;;;4.38;2.50;;;14.50;90.70;;;;;;5098369;28;20032;-81
2023/10/16 10:32:15;;;;;;;4.30;2.28;;;14.50;90.50;;;;;;5098872;28;20492;-82
2023/10/16 10:34:43;;;;;;;3.38;1.90;;;14.60;90.40;;;;;;5079967;28;20023;-82
2023/10/16 10:37:41;;;;;;;3.65;2.05;;;14.60;90.40;;;;;;5076357;28;20517;-81
2023/10/16 10:40:22;;;;;;;5.55;2.15;;;14.70;89.50;;;;;;5110458;28;20469;-82
2023/10/16 10:42:53;;;;;;;4.68;2.20;;;14.70;90.20;;;;;;5097855;28;20035;-81
2023/10/16 10:45:35;;;;;;;4.10;1.98;;;14.60;90.20;;;;;;5115199;28;20019;-85
2023/10/16 10:48:09;;;;;;;6.47;1.80;;;14.60;90.00;;;;;;5100729;28;20059;-85
2023/10/16 10:50:40;;;;;;;2.10;1.25;;;14.50;90.20;;;;;;5129564;27;20450;-85
2023/10/16 10:53:13;;;;;;;2.45;1.30;;;14.50;90.30;;;;;;5139475;27;20357;-85
2023/10/16 10:55:57;;;;;;;2.28;1.20;;;14.50;90.10;;;;;;5103592;27;20072;-85
2023/10/16 10:58:37;;;;;;;2.47;0.98;;;14.60;88.60;;;;;;5085443;27;20032;-82
2023/10/16 11:01:16;;;;;;;3.15;0.90;;;14.60;89.00;;;;;;5085245;27;20031;-82
2023/10/16 11:03:45;;;;;;;2.60;1.13;;;14.60;89.30;;;;;;5119805;27;20048;-82
2023/10/16 11:06:22;;;;;;;1.88;1.20;;;14.70;88.50;;;;;;5117742;28;20113;-81
2023/10/16 11:08:53;;;;;;;3.83;1.40;;;14.80;88.20;;;;;;5117274;27;20023;-82
2023/10/16 11:11:18;;;;;;;3.50;1.48;;;14.80;87.80;;;;;;5118550;28;20016;-82
2023/10/16 11:13:48;;;;;;;3.25;1.30;;;14.90;88.40;;;;;;5084622;28;20457;-82
2023/10/16 11:16:18;;;;;;;3.88;1.25;;;15.00;88.50;;;;;;5117420;28;20019;-82
2023/10/16 11:19:04;;;;;;;2.63;1.60;;;15.00;88.00;;;;;;5115662;28;20409;-82
2023/10/16 11:21:29;;;;;;;1.33;0.80;;;15.10;87.00;;;;;;5116120;28;20020;-82
2023/10/16 11:23:56;;;;;;;1.67;0.93;;;15.20;85.80;;;;;;5098888;28;20023;-81
2023/10/16 11:26:28;;;;;;;1.92;0.90;;;15.10;86.60;;;;;;5099104;28;20024;-82
2023/10/16 11:28:54;;;;;;;2.13;0.55;;;15.20;87.30;;;;;;5082650;27;20146;-82
2023/10/16 11:31:21;;;;;;;2.38;0.80;;;15.30;87.00;;;;;;5082705;27;20027;-82
2023/10/16 11:34:00;;;;;;;2.63;0.95;;;15.30;86.70;;;;;;5098890;28;20046;-82
2023/10/16 11:36:28;;;;;;;2.20;0.80;;;15.40;86.50;;;;;;5134474;28;20047;-82
2023/10/16 11:38:58;;;;;;;1.52;0.57;;;15.40;86.10;;;;;;5134811;27;20023;-82
2023/10/16 11:41:24;;;;;;;2.05;0.70;;;15.40;84.40;;;;;;5098400;28;20035;-83
2023/10/16 11:43:54;;;;;;;1.60;0.80;;;15.40;84.30;;;;;;5081984;28;20122;-82
2023/10/16 11:46:31;;;;;;;2.00;0.75;;;15.30;85.20;;;;;;5099134;28;20544;-82
2023/10/16 11:51:52;;;;;;;1.75;0.55;;;15.30;85.10;;;;;;5117880;28;20050;-82
2023/10/16 11:54:21;;;;;;;1.55;0.40;;;15.20;85.10;;;;;;5098740;27;20115;-82
2023/10/16 11:56:47;;;;;;;2.75;0.50;;;15.20;83.60;;;;;;5115938;28;20019;-82
2023/10/16 11:59:15;;;;;;;1.98;0.80;;;15.10;82.30;;;;;;5134803;28;20482;-82
2023/10/16 12:01:44;;;;;;;1.88;0.70;;;14.90;81.60;;;;;;5115709;28;20059;-82
2023/10/16 12:04:16;;;;;;;1.55;0.45;;;14.80;82.30;;;;;;5115690;28;20023;-82
2023/10/16 12:06:44;;;;;;;2.17;0.73;;;14.70;83.20;;;;;;5115582;28;20030;-82
2023/10/16 12:09:14;;;;;;;1.75;0.77;;;14.70;84.10;;;;;;5082214;28;20027;-82
2023/10/16 12:11:43;;;;;;;2.20;0.82;;;14.70;84.80;;;;;;5115353;28;20468;-82
2023/10/16 12:14:14;;;;;;;1.48;0.70;;;14.80;85.10;;;;;;5099429;28;20388;-82
2023/10/16 12:16:45;;;;;;;1.30;0.60;;;14.90;84.80;;;;;;5098618;28;20487;-82
2023/10/16 12:19:19;;;;;;;2.38;0.60;;;15.00;84.60;;;;;;5101347;27;20036;-82
2023/10/16 12:21:52;;;;;;;1.17;0.68;;;15.10;84.40;;;;;;5102036;27;20121;-82
2023/10/16 12:24:20;;;;;;;2.75;0.68;;;15.10;84.60;;;;;;5138019;27;20023;-82
2023/10/16 12:26:46;;;;;;;3.00;0.50;;;15.20;84.40;;;;;;5102230;27;20038;-82
2023/10/16 12:29:11;;;;;;;3.75;0.90;;;15.20;83.90;;;;;;5102011;27;20031;-82
2023/10/16 12:31:41;;;;;;;0.47;0.43;;;15.20;84.30;;;;;;5085515;27;20057;-82
2023/10/16 12:34:11;;;;;;;2.40;0.63;;;15.30;84.60;;;;;;5119140;27;20057;-82
2023/10/16 12:36:37;;;;;;;0.75;0.50;;;15.30;83.90;;;;;;5102093;27;20426;-82
2023/10/16 12:39:13;;;;;;;2.28;0.68;;;15.30;83.50;;;;;;5119730;27;20027;-82
2023/10/16 12:41:41;;;;;;;0.57;0.40;;;15.30;81.70;;;;;;5104707;27;20118;-81
2023/10/16 12:44:09;;;;;;;1.15;0.68;;;15.20;81.60;;;;;;5085295;27;20038;-82
2023/10/16 12:46:36;;;;;;;4.28;0.85;;;15.10;82.00;;;;;;5085272;27;20063;-82
2023/10/16 12:49:07;;;;;;;1.73;0.43;;;15.10;82.20;;;;;;5101656;27;20027;-82
2023/10/16 12:51:38;;;;;;;0.70;0.57;;;15.00;82.40;;;;;;5085601;27;20047;-82
2023/10/16 12:54:06;;;;;;;1.15;0.50;;;14.90;83.00;;;;;;5101990;27;20039;-82
2023/10/16 12:56:38;;;;;;;2.13;0.65;;;14.90;83.90;;;;;;5101229;27;20157;-82
2023/10/16 12:59:04;;;;;;;1.65;0.70;;;14.90;84.60;;;;;;5119572;27;20034;-82
2023/10/16 13:01:30;;;;;;;1.50;0.70;;;14.90;85.00;;;;;;5101198;27;20397;-81
2023/10/16 13:03:59;;;;;;;1.63;0.85;;;14.90;85.10;;;;;;5118174;27;20072;-82
2023/10/16 13:06:28;;;;;;;2.13;0.80;;;14.90;85.30;;;;;;5085336;27;20023;-82
2023/10/16 13:08:55;;;;;;;1.83;0.70;;;14.90;85.30;;;;;;5117912;27;20034;-82
2023/10/16 13:11:21;;;;;;;2.53;0.65;;;15.00;85.40;;;;;;5118126;27;20019;-82
2023/10/16 13:13:46;;;;;;;2.33;0.82;;;15.00;85.00;;;;;;5118107;27;20042;-82
2023/10/16 13:16:12;;;;;;;5.22;1.40;;;15.00;85.10;;;;;;5101035;27;20027;-81
2023/10/16 13:18:37;;;;;;;2.97;0.60;;;15.00;86.20;;;;;;5100830;27;20035;-82
2023/10/16 13:21:07;;;;;;;1.02;0.55;;;15.00;85.30;;;;;;5100891;27;20118;-82
2023/10/16 13:23:35;;;;;;;1.80;0.50;;;15.00;85.00;;;;;;5084930;27;20358;-82
2023/10/16 13:26:03;;;;;;;2.30;0.50;;;15.10;84.90;;;;;;5101751;27;20027;-83
2023/10/16 13:28:30;;;;;;;1.02;0.50;;;15.20;84.90;;;;;;5118629;27;20031;-83
2023/10/16 13:30:55;;;;;;;2.03;0.57;;;15.40;84.70;;;;;;5100880;27;20043;-83
2023/10/16 13:33:21;;;;;;;1.67;0.95;;;15.40;83.50;;;;;;5118521;27;20134;-83
2023/10/16 13:35:47;;;;;;;4.57;1.02;;;15.70;83.80;;;;;;5118643;27;20016;-83
2023/10/16 13:38:15;;;;;;;1.58;1.00;;;16.10;83.40;;;;;;5102327;27;20027;-83
2023/10/16 13:40:43;;;;;;;2.15;0.70;;;16.20;82.80;;;;;;5083917;27;20031;-84
2023/10/16 13:43:12;;;;;;;4.93;0.80;;;16.10;81.80;;;;;;5118193;27;20030;-84
2023/10/16 13:45:40;;;;;;;3.10;0.70;;;16.00;82.20;;;;;;5101862;27;20034;-84
2023/10/16 13:48:09;;;;;;;2.10;0.77;;;15.90;82.30;;;;;;5118011;27;20031;-84
2023/10/16 13:50:35;;;;;;;1.92;0.80;;;15.90;81.80;;;;;;5081239;28;20138;-84
2023/10/16 13:53:04;;;;;;;2.10;0.68;;;15.90;81.70;;;;;;5097717;28;20432;-84
2023/10/16 13:55:30;;;;;;;2.25;0.60;;;16.10;81.90;;;;;;5098126;28;20024;-84
2023/10/16 13:57:56;;;;;;;0.75;0.50;;;16.30;81.70;;;;;;5097451;28;20036;-84
2023/10/16 14:00:28;;;;;;;1.00;0.50;;;16.20;80.40;;;;;;5114786;28;20032;-84
2023/10/16 14:02:55;;;;;;;3.22;0.50;;;16.00;80.40;;;;;;5114460;28;20476;-84
2023/10/16 14:05:21;;;;;;;2.05;0.98;;;15.80;79.60;;;;;;5097421;28;20028;-84
2023/10/16 14:07:46;;;;;;;1.65;0.40;;;15.70;79.90;;;;;;5080443;28;20031;-83
2023/10/16 14:10:13;;;;;;;1.05;0.50;;;15.60;80.50;;;;;;5080429;28;20020;-84
2023/10/16 14:12:41;;;;;;;1.58;0.40;;;15.50;80.20;;;;;;5097456;28;20015;-84
2023/10/16 14:15:15;;;;;;;1.88;0.60;;;15.50;81.70;;;;;;5097720;28;20469;-84
2023/10/16 14:17:44;;;;;;;0.93;0.43;;;15.40;81.50;;;;;;5082199;28;20059;-83
2023/10/16 14:20:18;;;;;;;1.20;0.63;;;15.40;82.00;;;;;;5098289;28;20184;-83
2023/10/16 14:22:53;;;;;;;2.28;0.43;;;15.40;81.70;;;;;;5085473;28;20027;-83
2023/10/16 14:25:18;;;;;;;1.20;0.40;;;15.30;81.70;;;;;;5097349;28;20047;-83
2023/10/16 14:27:44;;;;;;;2.05;0.40;;;15.30;81.60;;;;;;5113655;28;20051;-83
2023/10/16 14:30:10;;;;;;;2.50;0.50;;;15.20;80.50;;;;;;5113246;28;20023;-84
2023/10/16 14:32:37;;;;;;;1.35;0.60;;;15.20;81.70;;;;;;5080370;28;20376;-84
2023/10/16 14:35:04;;;;;;;1.75;0.63;;;15.20;82.70;;;;;;5097316;28;20099;-84
2023/10/16 14:37:30;;;;;;;1.50;0.40;;;15.20;83.30;;;;;;5097679;28;20118;-84
2023/10/16 14:39:56;;;;;;;0.80;0.60;;;15.20;83.20;;;;;;5096763;28;20107;-84
2023/10/16 14:42:22;;;;;;;3.22;0.40;;;15.20;82.50;;;;;;5096057;28;20483;-84
2023/10/16 14:44:48;;;;;;;2.28;0.40;;;15.20;83.20;;;;;;5113403;28;20026;-84
2023/10/16 14:47:15;;;;;;;1.45;0.32;;;15.30;83.30;;;;;;5079204;28;20054;-83
2023/10/16 14:49:41;;;;;;;4.75;0.75;;;15.30;83.20;;;;;;5083126;27;20138;-84
2023/10/16 14:52:07;;;;;;;3.13;0.85;;;15.30;83.50;;;;;;5083170;27;20055;-84
2023/10/16 14:54:33;;;;;;;2.63;0.63;;;15.30;84.00;;;;;;5117157;27;20025;-84
2023/10/16 14:57:01;;;;;;;1.70;0.70;;;15.40;84.40;;;;;;5099739;27;20015;-84
2023/10/16 14:59:29;;;;;;;2.30;0.80;;;15.30;84.00;;;;;;5099810;27;20086;-84
2023/10/16 15:01:58;;;;;;;1.45;0.60;;;15.30;84.10;;;;;;5116998;27;20508;-84
2023/10/16 15:04:24;;;;;;;2.25;0.55;;;15.30;84.00;;;;;;5099727;27;20030;-83